DW1735 Seatac WA US current weather conditions

sailwx.info

Wind from 345 at 3 knots gusting 6

Air temperature 22.8° C
Dewpoint 9.5° C

Last reported at 2020-Aug-15 03:00 UTC.
Time now 2020-Aug-15 04:07 UTC

Location: N 47°26' W 122°20'.
View on Google Maps.

See reports from other nearby stations

  
Tides and Currents Weather Stations Pressure Air Temp Water Temp Dewpoint Dewpoint Depression Visibility Wind Speed Wind Dir Waves Ship Positions
date/time (UTC)wind fromknots sea level pressurealtimeterstation pressurevisibilityair tempwater tempwave heightnotes
2020-Aug-15 03:00 345 3 gusting 6 22.8
2020-Aug-15 02:46 340 1 gusting 3 23.3
2020-Aug-15 02:31 323 2 gusting 8 23.9
2020-Aug-15 02:16 314 3 gusting 7 24.4
2020-Aug-15 02:02 292 2 gusting 9 24.4
2020-Aug-15 01:47 331 8 gusting 13 25.0
2020-Aug-15 01:31 005 4 gusting 11 25.6
2020-Aug-15 01:16 348 3 gusting 8 25.6
2020-Aug-15 01:01 023 5 gusting 13 25.6
2020-Aug-15 00:46 355 4 gusting 11 25.6
2020-Aug-15 00:31 315 3 gusting 9 26.1
2020-Aug-15 00:16 277 2 gusting 8 25.6
2020-Aug-15 00:01 294 5 gusting 11 25.0
2020-Aug-14 23:45 317 6 gusting 9 25.0
2020-Aug-14 23:30 295 6 gusting 10 25.0
2020-Aug-14 23:16 309 7 gusting 13 24.4
2020-Aug-14 23:00 309 6 gusting 10 25.0
2020-Aug-14 22:45 309 8 gusting 11 24.4
2020-Aug-14 22:31 310 6 gusting 13 24.4
2020-Aug-14 22:15 336 4 gusting 11 25.0
2020-Aug-14 22:00 305 5 gusting 10 24.4
2020-Aug-14 21:45 333 6 gusting 11 23.9
2020-Aug-14 21:30 315 8 gusting 13 23.9
2020-Aug-14 21:15 324 8 gusting 11 23.9
2020-Aug-14 21:01 305 5 gusting 11 23.3
2020-Aug-14 20:45 302 6 gusting 9 22.8
2020-Aug-14 20:30 298 5 gusting 9 22.2
2020-Aug-14 20:15 280 6 gusting 9 21.7
2020-Aug-14 20:00 287 6 gusting 10 21.1
2020-Aug-14 19:45 296 4 gusting 8 21.1
2020-Aug-14 19:30 315 5 gusting 7 21.1
2020-Aug-14 19:17 263 5 gusting 9 20.6
2020-Aug-14 19:01 232 3 gusting 8 20.6
2020-Aug-14 18:47 285 4 gusting 8 20.0
2020-Aug-14 18:32 304 4 gusting 6 20.0
2020-Aug-14 18:19 316 3 gusting 7 20.0
2020-Aug-14 18:02 310 3 gusting 6 19.4
2020-Aug-14 17:46 024 3 gusting 13 20.0
2020-Aug-14 17:31 348 5 gusting 11 19.4
2020-Aug-14 17:16 317 4 gusting 10 18.9
2020-Aug-14 17:01 010 2 gusting 8 18.9
2020-Aug-14 16:46 035 2 gusting 7 18.3
2020-Aug-14 16:30 312 3 gusting 6 17.2
2020-Aug-14 16:16 360 1 gusting 6 17.2
2020-Aug-14 16:00 032 1 gusting 6 16.7
2020-Aug-14 15:45 355 2 gusting 8 16.1
2020-Aug-14 15:30 005 4 gusting 8 15.6
2020-Aug-14 15:15 075 3 gusting 7 15.0
2020-Aug-14 15:00 313 0 gusting 2 13.9
2020-Aug-14 14:45 032 0 gusting 2 12.2
2020-Aug-14 14:30 015 1 gusting 3 11.7
2020-Aug-14 14:15 028 0 gusting 3 11.1
2020-Aug-14 14:00 028 0 gusting 4 11.1
2020-Aug-14 13:45 037 0 gusting 3 11.1
2020-Aug-14 13:31 017 11.1
2020-Aug-14 13:17 019 11.1
2020-Aug-14 13:02 038 11.1
2020-Aug-14 12:47 015 1 gusting 4 11.7
2020-Aug-14 12:32 034 1 gusting 2 11.1
2020-Aug-14 12:17 009 11.1
2020-Aug-14 12:02 036 0 gusting 1 11.1
2020-Aug-14 11:47 036 0 gusting 2 11.7
2020-Aug-14 11:31 036 0 gusting 2 11.7
2020-Aug-14 11:16 005 0 gusting 2 12.2
2020-Aug-14 11:01 040 12.2
2020-Aug-14 10:46 037 12.2
2020-Aug-14 10:31 029 0 gusting 3 12.2
2020-Aug-14 10:16 044 12.8
2020-Aug-14 10:01 005 0 gusting 5 13.3
2020-Aug-14 09:47 037 2 gusting 5 13.3
2020-Aug-14 09:31 058 2 gusting 6 13.3
2020-Aug-14 09:16 040 0 gusting 3 12.8
2020-Aug-14 09:00 033 0 gusting 3 13.3
2020-Aug-14 08:46 042 2 gusting 5 13.3
2020-Aug-14 08:30 042 3 gusting 6 13.9
2020-Aug-14 08:15 030 1 gusting 5 13.9
2020-Aug-14 08:01 044 3 gusting 6 13.9
2020-Aug-14 07:46 047 1 gusting 4 14.4
2020-Aug-14 07:31 026 2 gusting 5 14.4
2020-Aug-14 07:15 030 1 gusting 4 15.0
2020-Aug-14 07:00 020 1 gusting 7 15.0
2020-Aug-14 06:45 011 4 gusting 8 15.0
2020-Aug-14 06:30 039 2 gusting 7 15.6
2020-Aug-14 06:15 046 1 gusting 7 15.6
2020-Aug-14 06:00 330 2 gusting 7 15.6
2020-Aug-14 05:45 355 2 gusting 6 15.6
2020-Aug-14 05:30 005 1 gusting 6 15.6
2020-Aug-14 05:15 355 2 gusting 5 16.1
2020-Aug-14 05:00 014 1 gusting 4 16.1
2020-Aug-14 04:45 355 0 gusting 2 16.1
2020-Aug-14 04:30 347 0 gusting 4 16.7
2020-Aug-14 04:15 346 1 gusting 6 17.2
2020-Aug-14 04:00 015 2 gusting 5 17.2
2020-Aug-14 03:33 337 1 gusting 3 17.8
2020-Aug-14 03:17 320 17.8
2020-Aug-14 03:02 244 0 gusting 4 18.9
2020-Aug-14 02:47 281 0 gusting 1 20.0
2020-Aug-14 02:31 324 20.6
2020-Aug-14 02:16 216 1 gusting 3 20.6
2020-Aug-14 01:46 295 4 gusting 6 21.7
2020-Aug-14 01:31 299 2 gusting 6 21.7
2020-Aug-14 01:16 263 3 gusting 6 21.7
2020-Aug-14 01:01 290 5 gusting 6 22.8
2020-Aug-14 00:47 341 1 gusting 6 22.2
2020-Aug-14 00:17 213 4 gusting 6 21.7
2020-Aug-14 00:02 244 3 gusting 6 21.7
2020-Aug-13 23:02 267 2 gusting 6 22.2
2020-Aug-13 22:46 278 3 gusting 6 21.7
2020-Aug-13 22:31 232 3 gusting 6 21.1
2020-Aug-13 22:16 298 5 gusting 6 21.7
2020-Aug-13 22:01 292 3 gusting 6 21.1
2020-Aug-13 21:46 240 2 gusting 6 21.1
2020-Aug-13 21:31 242 4 gusting 7 21.1
2020-Aug-13 21:16 265 3 gusting 6 20.6
2020-Aug-13 21:02 214 2 gusting 6 20.0
2020-Aug-13 20:45 217 1 gusting 6 19.4
2020-Aug-13 20:30 254 3 gusting 6 19.4
2020-Aug-13 20:15 251 3 gusting 6 19.4
2020-Aug-13 20:00 275 4 gusting 6 18.9
2020-Aug-13 19:46 253 3 gusting 6 18.3
2020-Aug-13 19:30 274 3 gusting 6 18.3
2020-Aug-13 19:00 275 1 gusting 6 16.7
2020-Aug-13 18:45 269 3 gusting 6 16.7
2020-Aug-13 18:30 262 4 gusting 7 16.1
2020-Aug-13 18:16 215 3 gusting 5 16.1
2020-Aug-13 18:03 265 3 gusting 6 16.1
2020-Aug-13 17:46 250 4 gusting 6 15.6
2020-Aug-13 17:31 274 4 gusting 6 15.6
2020-Aug-13 17:16 223 1 gusting 5 15.6
2020-Aug-13 17:01 271 2 gusting 6 15.6
2020-Aug-13 16:46 221 3 gusting 6 13.9
2020-Aug-13 16:30 230 4 gusting 6 15.0
2020-Aug-13 16:15 051 1 gusting 6 14.4
2020-Aug-13 16:01 167 3 gusting 5 13.9
2020-Aug-13 15:46 180 2 gusting 6 13.3
2020-Aug-13 15:31 197 1 gusting 4 12.8
2020-Aug-13 15:15 155 3 gusting 6 12.2
2020-Aug-13 15:00 132 2 gusting 6 11.7
2020-Aug-13 14:46 130 1 gusting 6 10.6
2020-Aug-13 14:30 138 2 gusting 6 10.0
2020-Aug-13 14:15 113 2 gusting 6 9.4
2020-Aug-13 14:00 094 2 gusting 6 9.4
2020-Aug-13 13:45 089 0 gusting 3 8.9
2020-Aug-13 13:30 069 8.9
2020-Aug-13 13:15 069 8.9
2020-Aug-13 13:00 069 9.4
2020-Aug-13 12:46 069 9.4
2020-Aug-13 12:31 069 9.4
2020-Aug-13 12:16 069 9.4
2020-Aug-13 12:01 069 10.0
2020-Aug-13 11:47 069 10.6
2020-Aug-13 11:31 080 0 gusting 2 10.6
2020-Aug-13 11:16 059 10.6
2020-Aug-13 11:01 080 11.1
2020-Aug-13 10:46 085 0 gusting 2 11.1
2020-Aug-13 10:31 054 1 gusting 4 11.1
2020-Aug-13 10:16 052 1 gusting 3 11.7
2020-Aug-13 10:01 055 2 gusting 3 11.7
2020-Aug-13 09:46 070 0 gusting 3 12.2
2020-Aug-13 09:31 041 1 gusting 4 12.2
2020-Aug-13 09:15 019 0 gusting 3 12.8
2020-Aug-13 09:00 026 0 gusting 5 12.8
2020-Aug-13 08:31 037 0 gusting 3 12.8
2020-Aug-13 08:16 013 1 gusting 4 12.8
2020-Aug-13 08:00 355 1 gusting 4 12.8
2020-Aug-13 07:46 010 1 gusting 4 12.8
2020-Aug-13 07:30 026 12.8
2020-Aug-13 07:15 065 0 gusting 1 12.8
2020-Aug-13 07:00 103 12.8
2020-Aug-13 06:45 103 0 gusting 2 13.3
2020-Aug-13 06:30 227 2 gusting 3 13.3
2020-Aug-13 06:15 103 13.9
2020-Aug-13 06:00 145 13.9
2020-Aug-13 05:45 179 2 gusting 4 14.4
2020-Aug-13 05:30 195 3 gusting 5 15.6
2020-Aug-13 05:15 028 16.1
2020-Aug-13 05:00 028 16.1
2020-Aug-13 04:45 360 0 gusting 2 16.1
2020-Aug-13 04:30 046 0 gusting 2 16.7
2020-Aug-13 04:15 034 0 gusting 2 16.7
2020-Aug-13 04:00 015 0 gusting 3 17.2